createdAt,value
2022-11-05T00:00:29.177Z,87.10
2022-11-05T00:01:29.254Z,86.90
2022-11-05T00:02:29.161Z,87.41
2022-11-05T00:03:29.195Z,86.99
2022-11-05T00:04:31.113Z,87.10
2022-11-05T00:05:30.119Z,87.20
2022-11-05T00:06:29.149Z,87.20
2022-11-05T00:07:29.110Z,86.99
2022-11-05T00:08:29.101Z,87.51
2022-11-05T00:09:29.086Z,87.61
2022-11-05T00:10:29.075Z,87.61
2022-11-05T00:11:29.091Z,87.71
2022-11-05T00:12:29.054Z,87.61
2022-11-05T00:13:29.053Z,87.61
2022-11-05T00:14:29.035Z,87.41
2022-11-05T00:15:29.033Z,87.20
2022-11-05T00:16:29.040Z,87.30
2022-11-05T00:17:28.991Z,87.51
2022-11-05T00:18:28.993Z,87.24
2022-11-05T00:19:28.988Z,86.32
2022-11-05T00:20:28.979Z,86.42
2022-11-05T00:21:28.979Z,86.52
2022-11-05T00:22:28.972Z,86.22
2022-11-05T00:23:28.949Z,86.18
2022-11-05T00:24:28.939Z,86.79
2022-11-05T00:25:28.928Z,86.58
2022-11-05T00:26:28.935Z,86.90
2022-11-05T00:27:28.905Z,86.83
2022-11-05T00:28:28.928Z,86.79
2022-11-05T00:29:28.885Z,87.10
2022-11-05T00:30:28.884Z,86.99
2022-11-05T00:31:28.890Z,86.99
2022-11-05T00:32:28.862Z,87.41
2022-11-05T00:33:28.848Z,86.99
2022-11-05T00:34:28.846Z,87.30
2022-11-05T00:35:28.833Z,87.51
2022-11-05T00:36:28.840Z,87.30
2022-11-05T00:37:28.803Z,87.51
2022-11-05T00:38:28.797Z,87.51
2022-11-05T00:39:28.792Z,87.82
2022-11-05T00:40:28.776Z,87.71
2022-11-05T00:41:28.784Z,87.82
2022-11-05T00:42:28.763Z,87.82
2022-11-05T00:43:28.742Z,87.82
2022-11-05T00:44:28.746Z,88.12
2022-11-05T00:45:28.723Z,88.17
2022-11-05T00:46:28.739Z,88.37
2022-11-05T00:47:28.707Z,88.78
2022-11-05T00:48:28.704Z,88.68
2022-11-05T00:49:28.683Z,88.88
2022-11-05T00:50:28.678Z,88.88
2022-11-05T00:51:28.695Z,88.57
2022-11-05T00:52:28.661Z,88.78
2022-11-05T00:53:28.632Z,88.68
2022-11-05T00:54:28.641Z,88.98
2022-11-05T00:55:28.655Z,88.98
2022-11-05T00:56:28.650Z,89.23
2022-11-05T00:57:28.603Z,88.98
2022-11-05T00:58:28.606Z,89.29
2022-11-05T00:59:28.593Z,89.19
2022-11-05T01:00:28.585Z,89.43
2022-11-05T01:01:28.746Z,89.64
2022-11-05T01:02:28.613Z,89.29
2022-11-05T01:03:28.549Z,89.50
2022-11-05T01:04:28.622Z,89.29
2022-11-05T01:05:28.535Z,89.81
2022-11-05T01:06:28.537Z,89.60
2022-11-05T01:07:28.506Z,90.01
2022-11-05T01:08:28.500Z,89.81
2022-11-05T01:09:28.496Z,89.64
2022-11-05T01:10:28.485Z,89.60
2022-11-05T01:11:28.498Z,89.84
2022-11-05T01:12:28.468Z,90.16
2022-11-05T01:13:28.453Z,90.05
2022-11-05T01:14:28.444Z,89.95
2022-11-05T01:15:28.440Z,90.26
2022-11-05T01:16:28.437Z,90.30
2022-11-05T01:17:29.404Z,90.61
2022-11-05T01:18:28.411Z,90.61
2022-11-05T01:19:28.403Z,90.71
2022-11-05T01:20:28.380Z,90.91
2022-11-05T01:21:28.396Z,91.33
2022-11-05T01:22:28.366Z,90.91
2022-11-05T01:23:28.357Z,91.22
2022-11-05T01:24:28.352Z,91.08
2022-11-05T01:25:28.332Z,91.53
2022-11-05T01:26:28.369Z,90.91
2022-11-05T01:27:28.322Z,91.28
2022-11-05T01:28:28.337Z,91.53
2022-11-05T01:29:28.298Z,91.53
2022-11-05T01:30:28.294Z,91.84
2022-11-05T01:31:28.325Z,92.14
2022-11-05T01:32:28.282Z,92.61
2022-11-05T01:33:28.246Z,92.55
2022-11-05T01:34:28.248Z,92.41
2022-11-05T01:35:28.244Z,92.31
2022-11-05T01:36:28.255Z,91.84
2022-11-05T01:37:28.217Z,92.21
2022-11-05T01:38:28.209Z,91.90
2022-11-05T01:39:28.195Z,92.00
2022-11-05T01:40:28.197Z,92.00
2022-11-05T01:41:28.183Z,92.00
2022-11-05T01:42:28.187Z,92.00
2022-11-05T01:43:28.165Z,92.21
2022-11-05T01:44:28.154Z,92.35
2022-11-05T01:45:28.139Z,92.00
2022-11-05T01:46:28.135Z,92.10
2022-11-05T01:47:28.147Z,92.10
2022-11-05T01:48:28.097Z,92.00
2022-11-05T01:49:28.099Z,92.10
2022-11-05T01:50:28.093Z,91.84
2022-11-05T01:51:28.083Z,92.21
2022-11-05T01:52:28.087Z,91.90
2022-11-05T01:53:28.062Z,92.10
2022-11-05T01:54:28.051Z,92.00
2022-11-05T01:55:28.043Z,92.04
2022-11-05T01:56:28.026Z,92.25
2022-11-05T01:57:28.044Z,92.14
2022-11-05T01:58:28.013Z,92.31
2022-11-05T01:59:27.999Z,92.31
2022-11-05T02:00:27.992Z,92.14
2022-11-05T02:01:28.168Z,92.14
2022-11-05T02:02:28.077Z,92.35
2022-11-05T02:03:27.958Z,92.14
2022-11-05T02:04:27.950Z,92.04
2022-11-05T02:05:27.941Z,92.25
2022-11-05T02:06:27.926Z,92.04
2022-11-05T02:07:27.952Z,92.14
2022-11-05T02:08:27.911Z,91.94
2022-11-05T02:09:27.902Z,92.04
2022-11-05T02:10:27.891Z,92.14
2022-11-05T02:11:27.882Z,92.35
2022-11-05T02:12:27.886Z,92.35
2022-11-05T02:13:27.878Z,92.25
2022-11-05T02:14:27.854Z,92.66
2022-11-05T02:15:27.845Z,92.35
2022-11-05T02:16:27.832Z,92.55
2022-11-05T02:17:27.847Z,92.35
2022-11-05T02:18:27.816Z,91.80
2022-11-05T02:19:27.813Z,92.14
2022-11-05T02:20:27.788Z,92.35
2022-11-05T02:21:27.790Z,92.55
2022-11-05T02:22:27.800Z,92.46
2022-11-05T02:23:27.764Z,92.35
2022-11-05T02:24:27.753Z,92.55
2022-11-05T02:25:27.745Z,92.86
2022-11-05T02:26:27.745Z,93.17
2022-11-05T02:27:27.746Z,92.97
2022-11-05T02:28:27.717Z,92.86
2022-11-05T02:29:27.718Z,92.76
2022-11-05T02:30:27.700Z,92.93
2022-11-05T02:31:27.697Z,92.97
2022-11-05T02:32:27.701Z,93.07
2022-11-05T02:33:27.672Z,93.13
2022-11-05T02:34:27.666Z,92.97
2022-11-05T02:35:27.652Z,92.72
2022-11-05T02:36:27.643Z,93.02
2022-11-05T02:37:27.651Z,93.07
2022-11-05T02:38:27.622Z,93.02
2022-11-05T02:39:27.613Z,92.93
2022-11-05T02:40:27.590Z,93.17
2022-11-05T02:41:27.600Z,93.07
2022-11-05T02:42:27.604Z,93.02
2022-11-05T02:43:27.577Z,93.02
2022-11-05T02:44:27.550Z,92.93
2022-11-05T02:45:27.573Z,92.93
2022-11-05T02:46:27.539Z,92.93
2022-11-05T02:47:27.560Z,92.93
2022-11-05T02:48:27.522Z,93.07
2022-11-05T02:49:27.522Z,92.93
2022-11-05T02:50:27.508Z,93.13
2022-11-05T02:51:27.502Z,93.02
2022-11-05T02:52:27.500Z,93.23
2022-11-05T02:53:27.479Z,93.27
2022-11-05T02:54:27.473Z,93.02
2022-11-05T02:55:27.479Z,93.02
2022-11-05T02:56:27.447Z,93.02
2022-11-05T02:57:27.455Z,92.93
2022-11-05T02:58:27.439Z,93.13
2022-11-05T02:59:27.425Z,92.72
2022-11-05T03:00:27.398Z,92.61
2022-11-05T03:01:27.523Z,92.72
2022-11-05T03:02:27.509Z,92.93
2022-11-05T03:03:27.388Z,92.93
2022-11-05T03:04:27.367Z,92.72
2022-11-05T03:05:27.364Z,92.93
2022-11-05T03:06:27.354Z,93.02
2022-11-05T03:07:27.364Z,92.97
2022-11-05T03:08:27.335Z,93.07
2022-11-05T03:09:27.318Z,93.17
2022-11-05T03:10:27.327Z,93.13
2022-11-05T03:11:27.307Z,93.07
2022-11-05T03:12:27.317Z,93.23
2022-11-05T03:13:27.291Z,93.07
2022-11-05T03:14:27.275Z,93.48
2022-11-05T03:15:27.270Z,92.86
2022-11-05T03:16:27.254Z,93.38
2022-11-05T03:17:27.276Z,93.13
2022-11-05T03:18:27.244Z,93.07
2022-11-05T03:19:27.232Z,93.48
2022-11-05T03:20:27.223Z,93.27
2022-11-05T03:21:27.200Z,93.59
2022-11-05T03:22:27.225Z,93.79
2022-11-05T03:23:27.193Z,93.48
2022-11-05T03:24:27.190Z,94.30
2022-11-05T03:25:27.181Z,94.45
2022-11-05T03:26:27.164Z,94.14
2022-11-05T03:27:27.179Z,94.45
2022-11-05T03:28:27.150Z,94.14
2022-11-05T03:29:27.129Z,94.20
2022-11-05T03:30:27.120Z,94.20
2022-11-05T03:31:27.111Z,94.10
2022-11-05T03:32:27.128Z,94.10
2022-11-05T03:33:27.088Z,93.83
2022-11-05T03:34:27.087Z,94.24
2022-11-05T03:35:27.076Z,94.04
2022-11-05T03:36:27.063Z,94.30
2022-11-05T03:37:27.078Z,93.79
2022-11-05T03:38:27.056Z,94.30
2022-11-05T03:39:27.039Z,94.30
2022-11-05T03:40:27.026Z,93.79
2022-11-05T03:41:27.023Z,94.30
2022-11-05T03:42:27.048Z,93.93
2022-11-05T03:43:27.004Z,94.14
2022-11-05T03:44:26.994Z,94.04
2022-11-05T03:45:26.982Z,94.24
2022-11-05T03:46:26.973Z,94.04
2022-11-05T03:47:26.975Z,93.89
2022-11-05T03:48:27.008Z,93.83
2022-11-05T03:49:26.942Z,93.93
2022-11-05T03:50:26.933Z,93.93
2022-11-05T03:51:26.967Z,93.93
2022-11-05T03:52:26.928Z,93.93
2022-11-05T03:53:26.908Z,94.24
2022-11-05T03:54:26.896Z,94.24
2022-11-05T03:55:26.886Z,93.83
2022-11-05T03:56:26.883Z,94.24
2022-11-05T03:57:26.904Z,94.45
2022-11-05T03:58:26.854Z,94.55
2022-11-05T03:59:26.841Z,94.24
2022-11-05T04:00:26.902Z,94.24
2022-11-05T04:01:26.962Z,94.24
2022-11-05T04:02:26.949Z,94.34
2022-11-05T04:03:26.802Z,94.14
2022-11-05T04:04:26.797Z,94.14
2022-11-05T04:05:26.812Z,93.83
2022-11-05T04:06:26.780Z,94.04
2022-11-05T04:07:26.790Z,93.83
2022-11-05T04:08:26.746Z,94.04
2022-11-05T04:09:26.731Z,94.04
2022-11-05T04:10:26.730Z,94.04
2022-11-05T04:11:26.720Z,94.24
2022-11-05T04:12:26.729Z,93.83
2022-11-05T04:13:26.708Z,94.14
2022-11-05T04:14:26.696Z,94.24
2022-11-05T04:15:26.686Z,93.93
2022-11-05T04:16:26.682Z,93.93
2022-11-05T04:17:26.683Z,93.93
2022-11-05T04:18:26.656Z,94.14
2022-11-05T04:19:26.648Z,93.98
2022-11-05T04:20:26.665Z,93.83
2022-11-05T04:21:26.610Z,93.87
2022-11-05T04:22:26.634Z,94.34
2022-11-05T04:23:26.604Z,94.04
2022-11-05T04:24:26.600Z,93.93
2022-11-05T04:25:26.579Z,93.98
2022-11-05T04:26:26.579Z,93.98
2022-11-05T04:27:26.588Z,93.93
2022-11-05T04:28:26.562Z,94.14
2022-11-05T04:29:26.540Z,94.04
2022-11-05T04:30:26.539Z,93.93
2022-11-05T04:31:26.531Z,94.14
2022-11-05T04:32:26.537Z,94.14
2022-11-05T04:33:26.499Z,94.04
2022-11-05T04:34:26.500Z,94.04
2022-11-05T04:35:26.492Z,94.18
2022-11-05T04:36:26.485Z,94.14
2022-11-05T04:37:26.487Z,94.14
2022-11-05T04:38:26.462Z,94.14
2022-11-05T04:39:26.454Z,94.14
2022-11-05T04:40:26.447Z,94.24
2022-11-05T04:41:26.436Z,94.29
2022-11-05T04:42:26.433Z,94.18
2022-11-05T04:43:26.415Z,94.39
2022-11-05T04:44:26.399Z,94.29
2022-11-05T04:45:26.396Z,94.12
2022-11-05T04:46:26.384Z,94.43
2022-11-05T04:47:26.391Z,94.23
2022-11-05T04:48:26.358Z,93.86
2022-11-05T04:49:26.357Z,94.17
2022-11-05T04:50:26.350Z,93.96
2022-11-05T04:51:26.336Z,94.48
2022-11-05T04:52:26.346Z,94.17
2022-11-05T04:53:26.322Z,94.27
2022-11-05T04:54:26.305Z,94.02
2022-11-05T04:55:26.291Z,93.92
2022-11-05T04:56:26.286Z,93.96
2022-11-05T04:57:26.298Z,93.65
2022-11-05T04:58:26.257Z,93.86
2022-11-05T04:59:27.264Z,94.48
2022-11-05T05:00:26.232Z,94.48
2022-11-05T05:01:26.368Z,94.68
2022-11-05T05:02:26.245Z,94.48
2022-11-05T05:03:26.218Z,94.48
2022-11-05T05:04:26.194Z,94.27
2022-11-05T05:05:26.197Z,94.17
2022-11-05T05:06:26.187Z,94.27
2022-11-05T05:07:26.190Z,94.07
2022-11-05T05:08:26.160Z,94.07
2022-11-05T05:09:26.154Z,93.96
2022-11-05T05:10:26.148Z,94.01
2022-11-05T05:11:26.130Z,94.42
2022-11-05T05:12:26.146Z,94.62
2022-11-05T05:13:26.111Z,95.14
2022-11-05T05:14:26.095Z,94.93
2022-11-05T05:15:26.097Z,94.62
2022-11-05T05:16:26.081Z,94.89
2022-11-05T05:17:26.088Z,94.62
2022-11-05T05:18:26.062Z,94.93
2022-11-05T05:19:26.049Z,95.03
2022-11-05T05:20:26.031Z,94.93
2022-11-05T05:21:26.029Z,95.14
2022-11-05T05:22:26.038Z,95.14
2022-11-05T05:23:26.011Z,95.55
2022-11-05T05:24:25.991Z,95.55
2022-11-05T05:25:25.989Z,95.55
2022-11-05T05:26:25.980Z,95.65
2022-11-05T05:27:25.993Z,95.65
2022-11-05T05:28:25.965Z,95.65
2022-11-05T05:29:25.941Z,95.75
2022-11-05T05:30:25.942Z,95.59
2022-11-05T05:31:25.945Z,95.65
2022-11-05T05:32:25.922Z,95.80
2022-11-05T05:33:25.913Z,95.59
2022-11-05T05:34:25.900Z,95.18
2022-11-05T05:35:25.893Z,94.87
2022-11-05T05:36:25.890Z,94.77
2022-11-05T05:37:25.891Z,95.02
2022-11-05T05:38:25.860Z,94.81
2022-11-05T05:39:25.858Z,94.92
2022-11-05T05:40:25.834Z,95.02
2022-11-05T05:41:26.895Z,94.65
2022-11-05T05:42:25.846Z,94.76
2022-11-05T05:43:26.818Z,94.20
2022-11-05T05:44:25.811Z,94.34
2022-11-05T05:45:25.797Z,93.99
2022-11-05T05:46:25.787Z,94.03
2022-11-05T05:47:25.794Z,94.55
2022-11-05T05:48:25.753Z,94.45
2022-11-05T05:49:25.745Z,94.70
2022-11-05T05:50:25.740Z,94.13
2022-11-05T05:51:25.728Z,94.18
2022-11-05T05:52:25.727Z,93.87
2022-11-05T05:53:25.705Z,93.98
2022-11-05T05:54:30.849Z,93.56
2022-11-05T05:55:27.693Z,93.30
2022-11-05T05:56:25.681Z,93.66
2022-11-05T05:57:25.690Z,93.71
2022-11-05T05:58:25.654Z,93.71
2022-11-05T05:59:25.653Z,93.50
2022-11-05T06:00:25.644Z,94.32
2022-11-05T06:01:25.704Z,94.74
2022-11-05T06:02:25.731Z,94.84
2022-11-05T06:03:25.607Z,94.53
2022-11-05T06:04:25.598Z,94.74
2022-11-05T06:05:25.588Z,93.98
2022-11-05T06:06:25.574Z,94.74
2022-11-05T06:07:25.589Z,94.49
2022-11-05T06:08:25.550Z,94.28
2022-11-05T06:09:25.545Z,94.64
2022-11-05T06:10:25.576Z,94.70
2022-11-05T06:11:25.526Z,94.59
2022-11-05T06:12:25.525Z,95.15
2022-11-05T06:13:25.508Z,95.05
2022-11-05T06:14:25.496Z,95.05
2022-11-05T06:15:25.481Z,95.00
2022-11-05T06:16:25.478Z,95.31
2022-11-05T06:17:25.491Z,95.46
2022-11-05T06:18:25.458Z,95.31
2022-11-05T06:19:25.445Z,95.10
2022-11-05T06:20:25.438Z,95.05
2022-11-05T06:21:25.424Z,95.42
2022-11-05T06:22:25.437Z,95.10
2022-11-05T06:23:25.406Z,95.06
2022-11-05T06:24:25.400Z,95.00
2022-11-05T06:25:25.441Z,94.76
2022-11-05T06:26:57.293Z,94.65
2022-11-05T06:27:25.416Z,94.24
2022-11-05T06:28:25.357Z,94.13
2022-11-05T06:29:25.345Z,94.03
2022-11-05T06:30:25.328Z,94.65
2022-11-05T06:31:25.320Z,94.55
2022-11-05T06:32:25.338Z,94.65
2022-11-05T06:33:25.293Z,94.76
2022-11-05T06:34:25.287Z,94.55
2022-11-05T06:35:25.265Z,94.90
2022-11-05T06:36:25.260Z,94.76
2022-11-05T06:37:25.266Z,94.80
2022-11-05T06:38:25.248Z,94.45
2022-11-05T06:39:25.221Z,94.70
2022-11-05T06:40:25.219Z,94.55
2022-11-05T06:41:25.211Z,94.55
2022-11-05T06:42:25.221Z,94.45
2022-11-05T06:43:25.185Z,94.40
2022-11-05T06:44:25.180Z,94.34
2022-11-05T06:45:25.176Z,94.65
2022-11-05T06:46:25.163Z,94.51
2022-11-05T06:47:25.169Z,94.55
2022-11-05T06:48:25.130Z,94.55
2022-11-05T06:49:25.138Z,94.71
2022-11-05T06:50:25.123Z,94.76
2022-11-05T06:51:25.104Z,94.40
2022-11-05T06:52:25.126Z,94.71
2022-11-05T06:53:25.088Z,93.88
2022-11-05T06:54:25.081Z,93.88
2022-11-05T06:55:25.075Z,93.68
2022-11-05T06:56:25.065Z,93.88
2022-11-05T06:57:25.070Z,93.88
2022-11-05T06:58:25.047Z,93.58
2022-11-05T06:59:25.029Z,93.27
2022-11-05T07:00:25.021Z,93.16
2022-11-05T07:01:25.119Z,93.27
2022-11-05T07:02:25.054Z,92.96
2022-11-05T07:03:24.977Z,92.76
2022-11-05T07:04:24.999Z,93.27
2022-11-05T07:05:24.963Z,93.06
2022-11-05T07:06:24.964Z,94.24
2022-11-05T07:07:24.961Z,94.34
2022-11-05T07:08:24.935Z,94.24
2022-11-05T07:09:24.921Z,93.68
2022-11-05T07:10:24.923Z,93.68
2022-11-05T07:11:24.895Z,93.37
2022-11-05T07:12:24.919Z,93.37
2022-11-05T07:13:24.882Z,93.48
2022-11-05T07:14:24.867Z,93.06
2022-11-05T07:15:24.859Z,93.12
2022-11-05T07:16:24.849Z,92.96
2022-11-05T07:17:24.857Z,92.65
2022-11-05T07:18:24.831Z,92.92
2022-11-05T07:19:24.837Z,92.76
2022-11-05T07:20:28.213Z,92.86
2022-11-05T07:21:24.795Z,92.82
2022-11-05T07:22:24.799Z,92.82
2022-11-05T07:23:24.775Z,92.50
2022-11-05T07:24:24.755Z,92.61
2022-11-05T07:25:24.753Z,92.30
2022-11-05T07:26:24.742Z,92.10
2022-11-05T07:27:24.760Z,92.61
2022-11-05T07:28:24.730Z,92.97
2022-11-05T07:29:24.706Z,91.99
2022-11-05T07:30:24.712Z,91.74
2022-11-05T07:31:24.692Z,91.17
2022-11-05T07:32:24.685Z,91.74
2022-11-05T07:33:24.671Z,91.33
2022-11-05T07:34:24.662Z,90.72
2022-11-05T07:35:24.651Z,91.02
2022-11-05T07:36:24.650Z,91.64
2022-11-05T07:37:24.643Z,90.92
2022-11-05T07:38:24.627Z,91.17
2022-11-05T07:39:24.611Z,91.06
2022-11-05T07:40:24.587Z,90.92
2022-11-05T07:41:24.640Z,90.92
2022-11-05T07:42:24.602Z,91.23
2022-11-05T07:43:24.568Z,91.17
2022-11-05T07:44:24.813Z,91.44
2022-11-05T07:45:24.579Z,90.61
2022-11-05T07:46:24.538Z,91.33
2022-11-05T07:47:24.549Z,91.29
2022-11-05T07:48:24.513Z,90.98
2022-11-05T07:49:24.520Z,91.14
2022-11-05T07:50:24.504Z,90.12
2022-11-05T07:51:24.501Z,90.42
2022-11-05T07:52:24.501Z,90.01
2022-11-05T07:53:24.468Z,90.42
2022-11-05T07:54:24.462Z,90.08
2022-11-05T07:55:24.457Z,90.08
2022-11-05T07:56:24.433Z,89.83
2022-11-05T07:57:24.443Z,89.52
2022-11-05T07:58:24.418Z,89.52
2022-11-05T07:59:24.403Z,89.11
2022-11-05T08:00:24.405Z,88.84
2022-11-05T08:01:24.537Z,88.80
2022-11-05T08:02:24.606Z,88.70
2022-11-05T08:03:24.495Z,88.18
2022-11-05T08:04:24.368Z,88.14
2022-11-05T08:05:24.356Z,87.84
2022-11-05T08:06:24.344Z,87.70
2022-11-05T08:07:24.352Z,87.18
2022-11-05T08:08:24.328Z,87.04
2022-11-05T08:09:24.331Z,86.73
2022-11-05T08:10:24.303Z,85.87
2022-11-05T08:11:24.295Z,85.56
2022-11-05T08:12:24.303Z,85.42
2022-11-05T08:13:24.272Z,84.03
2022-11-05T08:14:24.282Z,83.49
2022-11-05T08:15:24.257Z,84.34
2022-11-05T08:16:24.247Z,84.55
2022-11-05T08:17:24.259Z,85.47
2022-11-05T08:18:24.247Z,85.33
2022-11-05T08:19:24.216Z,85.33
2022-11-05T08:20:24.198Z,84.92
2022-11-05T08:21:24.201Z,84.31
2022-11-05T08:22:24.212Z,84.37
2022-11-05T08:23:24.184Z,84.37
2022-11-05T08:24:24.173Z,84.27
2022-11-05T08:25:24.156Z,83.45
2022-11-05T08:26:24.151Z,84.20
2022-11-05T08:27:24.177Z,83.28
2022-11-05T08:28:24.120Z,83.32
2022-11-05T08:29:24.117Z,83.32
2022-11-05T08:30:24.116Z,83.49
2022-11-05T08:31:24.096Z,84.00
2022-11-05T08:32:24.282Z,84.00
2022-11-05T08:33:24.085Z,84.41
2022-11-05T08:34:24.073Z,84.00
2022-11-05T08:35:24.063Z,84.34
2022-11-05T08:36:24.052Z,84.45
2022-11-05T08:37:24.063Z,84.31
2022-11-05T08:38:24.039Z,84.61
2022-11-05T08:39:24.020Z,84.61
2022-11-05T08:40:24.009Z,84.47
2022-11-05T08:41:24.004Z,84.58
2022-11-05T08:42:24.017Z,84.53
2022-11-05T08:43:23.982Z,84.33
2022-11-05T08:44:23.978Z,83.82
2022-11-05T08:45:23.963Z,84.12
2022-11-05T08:46:23.985Z,83.82
2022-11-05T08:47:23.964Z,83.78
2022-11-05T08:48:23.965Z,83.78
2022-11-05T08:49:23.924Z,83.64
2022-11-05T08:50:23.915Z,83.95
2022-11-05T08:51:23.916Z,83.84
2022-11-05T08:52:23.918Z,84.36
2022-11-05T08:53:23.884Z,84.46
2022-11-05T08:54:23.877Z,85.17
2022-11-05T08:55:23.866Z,85.58
2022-11-05T08:56:23.857Z,85.17
2022-11-05T08:57:23.865Z,85.28
2022-11-05T08:58:23.832Z,85.34
2022-11-05T08:59:23.824Z,85.55
2022-11-05T09:00:23.907Z,85.34
2022-11-05T09:01:23.901Z,85.14
2022-11-05T09:02:23.878Z,85.24
2022-11-05T09:03:23.789Z,84.83
2022-11-05T09:04:23.779Z,84.31
2022-11-05T09:05:23.769Z,84.42
2022-11-05T09:06:23.762Z,84.52
2022-11-05T09:07:23.773Z,84.52
2022-11-05T09:08:23.750Z,84.22
2022-11-05T09:09:23.732Z,84.22
2022-11-05T09:10:23.851Z,84.28
2022-11-05T09:11:33.149Z,83.87
2022-11-05T09:12:25.717Z,84.07
2022-11-05T09:13:23.862Z,84.11
2022-11-05T09:14:23.678Z,83.91
2022-11-05T09:15:23.681Z,84.11
2022-11-05T09:16:23.645Z,83.91
2022-11-05T09:17:23.673Z,84.31
2022-11-05T09:18:23.640Z,83.70
2022-11-05T09:19:23.632Z,83.50
2022-11-05T09:20:23.759Z,83.60
2022-11-05T09:21:23.612Z,83.70
2022-11-05T09:22:23.627Z,83.44
2022-11-05T09:23:23.604Z,83.23
2022-11-05T09:24:23.587Z,83.13
2022-11-05T09:25:23.578Z,82.65
2022-11-05T09:26:23.581Z,82.45
2022-11-05T09:27:23.576Z,83.17
2022-11-05T09:28:23.562Z,83.17
2022-11-05T09:29:23.540Z,83.06
2022-11-05T09:30:23.564Z,83.13
2022-11-05T09:31:23.516Z,83.27
2022-11-05T09:32:23.528Z,83.88
2022-11-05T09:33:23.512Z,83.88
2022-11-05T09:34:23.485Z,84.09
2022-11-05T09:35:23.473Z,83.78
2022-11-05T09:36:23.639Z,84.09
2022-11-05T09:37:23.477Z,83.95
2022-11-05T09:38:23.445Z,83.64
2022-11-05T09:39:23.438Z,83.88
2022-11-05T09:40:23.524Z,83.98
2022-11-05T09:41:23.420Z,83.54
2022-11-05T09:42:23.513Z,83.95
2022-11-05T09:43:28.800Z,83.54
2022-11-05T09:44:23.399Z,83.44
2022-11-05T09:45:23.404Z,83.44
2022-11-05T09:46:23.398Z,82.98
2022-11-05T09:47:23.387Z,83.09
2022-11-05T09:48:23.356Z,82.98
2022-11-05T09:49:23.344Z,83.19
2022-11-05T09:50:23.421Z,82.27
2022-11-05T09:51:24.297Z,83.09
2022-11-05T09:52:23.328Z,82.78
2022-11-05T09:53:23.299Z,82.68
2022-11-05T09:54:23.289Z,82.48
2022-11-05T09:55:23.272Z,82.48
2022-11-05T09:56:23.265Z,82.75
2022-11-05T09:57:23.282Z,82.07
2022-11-05T09:58:28.372Z,81.72
2022-11-05T09:59:25.238Z,81.72
2022-11-05T10:00:23.307Z,82.03
2022-11-05T10:01:23.356Z,81.10
2022-11-05T10:02:23.290Z,82.23
2022-11-05T10:03:23.198Z,81.62
2022-11-05T10:04:23.189Z,81.88
2022-11-05T10:05:23.269Z,81.88
2022-11-05T10:06:23.171Z,80.66
2022-11-05T10:07:23.174Z,80.15
2022-11-05T10:08:23.142Z,80.05
2022-11-05T10:09:23.179Z,79.53
2022-11-05T10:10:23.130Z,79.60
2022-11-05T10:11:23.114Z,78.99
2022-11-05T10:12:23.219Z,78.78
2022-11-05T10:13:23.111Z,78.58
2022-11-05T10:14:23.094Z,77.80
2022-11-05T10:15:23.085Z,77.59
2022-11-05T10:16:23.070Z,77.45
2022-11-05T10:17:23.092Z,77.76
2022-11-05T10:18:23.100Z,77.35
2022-11-05T10:19:23.037Z,77.11
2022-11-05T10:20:23.032Z,77.25
2022-11-05T10:21:44.228Z,76.33
2022-11-05T10:22:25.030Z,76.03
2022-11-05T10:23:22.999Z,76.23
2022-11-05T10:24:22.988Z,76.33
2022-11-05T10:25:22.983Z,76.43
2022-11-05T10:26:22.966Z,77.35
2022-11-05T10:27:22.949Z,76.64
2022-11-05T10:28:23.159Z,76.50
2022-11-05T10:29:22.947Z,75.62
2022-11-05T10:30:22.931Z,75.68
2022-11-05T10:31:22.926Z,75.37
2022-11-05T10:32:22.964Z,74.46
2022-11-05T10:33:22.921Z,74.25
2022-11-05T10:34:22.889Z,73.74
2022-11-05T10:35:22.876Z,73.57
2022-11-05T10:36:22.874Z,73.91
2022-11-05T10:37:22.863Z,73.16
2022-11-05T10:38:22.873Z,73.67
2022-11-05T10:39:22.874Z,73.03
2022-11-05T10:40:22.967Z,73.13
2022-11-05T10:41:22.825Z,73.40
2022-11-05T10:42:22.815Z,72.31
2022-11-05T10:43:22.828Z,71.70
2022-11-05T10:44:22.796Z,72.62
2022-11-05T10:45:22.788Z,72.41
2022-11-05T10:46:22.779Z,72.31
2022-11-05T10:47:22.758Z,72.69
2022-11-05T10:48:22.779Z,72.28
2022-11-05T10:49:22.871Z,71.77
2022-11-05T10:50:22.738Z,70.44
2022-11-05T10:51:22.713Z,70.04
2022-11-05T10:52:22.710Z,69.90
2022-11-05T10:53:22.725Z,70.00
2022-11-05T10:54:22.695Z,70.72
2022-11-05T10:55:22.679Z,71.43
2022-11-05T10:56:22.747Z,71.67
2022-11-05T10:57:22.664Z,71.36
2022-11-05T10:58:22.672Z,71.77
2022-11-05T10:59:22.666Z,71.80
2022-11-05T11:00:22.632Z,71.80
2022-11-05T11:01:22.717Z,71.60
2022-11-05T11:02:22.689Z,72.92
2022-11-05T11:03:22.614Z,72.41
2022-11-05T11:04:22.597Z,71.70
2022-11-05T11:05:22.592Z,71.87
2022-11-05T11:06:22.572Z,71.80
2022-11-05T11:07:22.548Z,71.60
2022-11-05T11:08:22.572Z,72.00
2022-11-05T11:09:22.539Z,71.84
2022-11-05T11:10:22.529Z,70.85
2022-11-05T11:11:22.526Z,69.45
2022-11-05T11:12:22.508Z,69.04
2022-11-05T11:13:22.527Z,68.39
2022-11-05T11:14:22.495Z,69.42
2022-11-05T11:15:22.481Z,69.52
2022-11-05T11:16:22.483Z,70.34
2022-11-05T11:17:22.476Z,69.21
2022-11-05T11:18:22.476Z,69.31
2022-11-05T11:19:22.451Z,68.90
2022-11-05T11:20:22.442Z,69.42
2022-11-05T11:21:22.424Z,70.37
2022-11-05T11:22:22.417Z,70.54
2022-11-05T11:23:22.423Z,71.05
2022-11-05T11:24:22.401Z,70.34
2022-11-05T11:25:22.385Z,70.92
2022-11-05T11:26:22.385Z,69.79
2022-11-05T11:27:22.363Z,70.00
2022-11-05T11:28:22.375Z,70.40
2022-11-05T11:29:22.345Z,69.07
2022-11-05T11:30:22.336Z,70.20
2022-11-05T11:31:22.323Z,70.30
2022-11-05T11:32:22.317Z,70.06
2022-11-05T11:33:22.327Z,68.33
2022-11-05T11:34:22.299Z,67.79
2022-11-05T11:35:22.293Z,67.38
2022-11-05T11:36:22.283Z,67.24
2022-11-05T11:37:22.265Z,67.04
2022-11-05T11:38:22.279Z,67.04
2022-11-05T11:39:22.254Z,67.14
2022-11-05T11:40:22.236Z,67.21
2022-11-05T11:41:22.231Z,67.32
2022-11-05T11:42:22.228Z,66.09
2022-11-05T11:43:22.231Z,66.36
2022-11-05T11:44:22.195Z,66.09
2022-11-05T11:45:22.189Z,65.68
2022-11-05T11:46:22.189Z,66.39
2022-11-05T11:47:22.170Z,65.48
2022-11-05T11:48:22.177Z,65.58
2022-11-05T11:49:22.154Z,65.61
2022-11-05T11:50:22.139Z,66.42
2022-11-05T11:51:22.129Z,66.12
2022-11-05T11:52:22.127Z,65.71
2022-11-05T11:53:22.141Z,66.63
2022-11-05T11:54:24.819Z,66.94
2022-11-05T11:55:23.094Z,66.09
2022-11-05T11:56:22.083Z,64.56
2022-11-05T11:57:22.097Z,64.56
2022-11-05T11:58:22.067Z,65.07
2022-11-05T11:59:35.122Z,64.36
2022-11-05T12:00:24.058Z,64.12
2022-11-05T12:01:22.055Z,64.53
2022-11-05T12:02:22.185Z,64.53
2022-11-05T12:03:22.103Z,64.94
2022-11-05T12:04:22.009Z,63.92
2022-11-05T12:05:21.984Z,64.53
2022-11-05T12:06:21.989Z,64.32
2022-11-05T12:07:21.993Z,63.61
2022-11-05T12:08:21.965Z,62.16
2022-11-05T12:09:21.955Z,62.97
2022-11-05T12:10:21.946Z,61.82
2022-11-05T12:11:21.937Z,61.82
2022-11-05T12:12:21.932Z,61.65
2022-11-05T12:13:21.912Z,61.72
2022-11-05T12:14:21.903Z,62.54
2022-11-05T12:15:21.893Z,61.61
2022-11-05T12:16:21.949Z,61.52
2022-11-05T12:17:21.893Z,60.93
2022-11-05T12:18:21.861Z,61.52
2022-11-05T12:19:21.853Z,61.61
2022-11-05T12:20:21.836Z,61.11
2022-11-05T12:21:47.759Z,61.82
2022-11-05T12:22:22.846Z,61.93
2022-11-05T12:23:21.816Z,61.82
2022-11-05T12:24:21.810Z,61.41
2022-11-05T12:25:21.795Z,62.36
2022-11-05T12:26:21.794Z,61.54
2022-11-05T12:27:21.795Z,61.14
2022-11-05T12:28:21.768Z,62.05
2022-11-05T12:29:21.764Z,61.65
2022-11-05T12:31:47.745Z,61.93
2022-11-05T12:32:47.663Z,61.93
2022-11-05T12:33:47.597Z,61.93
2022-11-05T12:34:47.588Z,61.72
2022-11-05T12:35:53.325Z,61.14
2022-11-05T12:36:49.680Z,61.54
2022-11-05T12:37:48.704Z,61.65
2022-11-05T12:38:48.673Z,61.95
2022-11-05T12:39:48.654Z,62.36
2022-11-05T12:40:49.647Z,63.48
2022-11-05T12:41:48.642Z,62.56
2022-11-05T12:42:48.647Z,62.16
2022-11-05T12:43:48.624Z,62.16
2022-11-05T12:44:48.620Z,62.87
2022-11-05T12:45:48.599Z,63.58
2022-11-05T12:46:48.592Z,63.38
2022-11-05T12:47:48.596Z,63.35
2022-11-05T12:48:48.575Z,62.97
2022-11-05T12:49:48.558Z,63.18
2022-11-05T12:50:48.560Z,62.05
2022-11-05T12:51:48.550Z,61.34
2022-11-05T12:52:48.555Z,61.44
2022-11-05T12:53:48.523Z,60.22